Time;durP1;ratioP1;P1;durP2;ratioP2;P2;SDS_P1;SDS_P2;PMS_P1;PMS_P2;Temp;Humidity;BMP_temperature;BMP_pressure;BME280_temperature;BME280_humidity;BME280_pressure;Samples;Min_cycle;Max_cycle;Signal;HPM_P1;HPM_P2
2021/06/28 00:01:28;;;;;;;24.53;14.30;;;18.90;99.90;;;;;;6281066;22;20549;-81
2021/06/28 00:03:55;;;;;;;15.20;10.30;;;18.90;99.90;;;;;;6282805;22;20499;-82
2021/06/28 00:06:22;;;;;;;14.50;10.73;;;18.90;99.90;;;;;;6283748;22;20438;-81
2021/06/28 00:08:49;;;;;;;16.83;12.10;;;18.90;99.90;;;;;;6283235;22;20462;-81
2021/06/28 00:11:16;;;;;;;14.93;10.67;;;18.90;99.90;;;;;;6282606;22;20445;-81
2021/06/28 00:13:44;;;;;;;15.93;11.33;;;19.00;99.90;;;;;;6283204;22;20469;-80
2021/06/28 00:16:12;;;;;;;13.13;9.80;;;18.90;99.90;;;;;;6283817;22;20674;-81
2021/06/28 00:18:41;;;;;;;16.50;11.50;;;19.00;99.90;;;;;;6282682;22;20497;-81
2021/06/28 00:21:09;;;;;;;13.83;10.40;;;18.90;99.90;;;;;;6284054;22;20824;-80
2021/06/28 00:23:36;;;;;;;13.50;9.63;;;18.90;99.90;;;;;;6283682;22;20409;-82
2021/06/28 00:26:03;;;;;;;13.57;9.30;;;18.90;99.90;;;;;;6284731;22;20411;-81
2021/06/28 00:28:30;;;;;;;15.97;11.33;;;18.90;99.90;;;;;;6284953;22;20491;-80
2021/06/28 00:30:57;;;;;;;14.63;10.30;;;18.90;99.90;;;;;;6284915;22;20677;-80
2021/06/28 00:33:24;;;;;;;16.40;12.30;;;18.90;99.90;;;;;;6287061;22;20437;-81
2021/06/28 00:35:53;;;;;;;14.70;10.67;;;18.90;99.90;;;;;;6285874;22;20411;-82
2021/06/28 00:38:20;;;;;;;16.20;11.97;;;18.80;99.90;;;;;;6284045;22;20461;-80
2021/06/28 00:40:49;;;;;;;17.60;14.83;;;18.70;99.90;;;;;;6285163;22;20470;-82
2021/06/28 00:43:16;;;;;;;14.40;11.10;;;18.70;99.90;;;;;;6286724;22;20462;-82
2021/06/28 00:45:44;;;;;;;17.27;11.70;;;18.70;99.90;;;;;;6285550;22;20395;-82
2021/06/28 00:48:13;;;;;;;16.87;12.00;;;18.80;99.90;;;;;;6287426;22;20517;-81
2021/06/28 00:50:42;;;;;;;15.73;10.70;;;18.70;99.90;;;;;;6287500;22;20430;-83
2021/06/28 00:53:13;;;;;;;14.30;9.77;;;18.70;99.90;;;;;;6288876;22;20414;-81
2021/06/28 00:55:42;;;;;;;15.50;11.50;;;18.70;99.90;;;;;;6288026;22;20482;-81
2021/06/28 00:58:09;;;;;;;14.00;9.30;;;18.70;99.90;;;;;;6287903;22;20506;-82
2021/06/28 01:00:37;;;;;;;14.63;10.10;;;18.70;99.90;;;;;;6287371;22;20494;-82
2021/06/28 01:03:05;;;;;;;13.30;9.87;;;18.60;99.90;;;;;;6286786;22;20493;-81
2021/06/28 01:05:34;;;;;;;15.57;10.43;;;18.70;99.90;;;;;;6288556;22;20490;-81
2021/06/28 01:08:03;;;;;;;18.60;11.20;;;18.70;99.90;;;;;;6288972;22;20461;-82
2021/06/28 01:10:32;;;;;;;15.10;10.40;;;18.60;99.90;;;;;;6289114;22;20417;-81
2021/06/28 01:12:59;;;;;;;14.20;9.90;;;18.60;99.90;;;;;;6288468;22;21096;-82
2021/06/28 01:15:26;;;;;;;15.33;11.37;;;18.50;99.90;;;;;;6288575;22;20429;-81
2021/06/28 01:17:54;;;;;;;16.93;11.50;;;18.60;99.90;;;;;;6287538;22;20422;-81
2021/06/28 01:20:23;;;;;;;21.30;13.83;;;18.70;99.90;;;;;;6286018;22;20471;-81
2021/06/28 01:22:51;;;;;;;16.30;11.40;;;18.70;99.90;;;;;;6289127;22;20407;-82
2021/06/28 01:25:21;;;;;;;18.97;13.90;;;18.70;99.90;;;;;;6287993;22;20470;-82
2021/06/28 01:27:49;;;;;;;14.83;10.73;;;18.50;99.90;;;;;;6288493;22;20431;-81
2021/06/28 01:30:19;;;;;;;14.47;10.60;;;18.50;99.90;;;;;;6287256;22;20399;-82
2021/06/28 01:32:47;;;;;;;13.97;10.13;;;18.60;99.90;;;;;;6286808;22;20407;-82
2021/06/28 01:35:15;;;;;;;13.30;10.40;;;18.60;99.90;;;;;;6288102;22;20800;-83
2021/06/28 01:37:43;;;;;;;15.57;12.37;;;18.60;99.90;;;;;;6287686;22;20450;-83
2021/06/28 01:40:12;;;;;;;13.87;10.20;;;18.50;99.90;;;;;;6285975;22;20391;-82
2021/06/28 01:42:40;;;;;;;14.93;11.03;;;18.50;99.90;;;;;;6285678;22;20423;-82
2021/06/28 01:45:09;;;;;;;14.20;9.67;;;18.40;99.90;;;;;;6285283;22;20397;-82
2021/06/28 01:47:36;;;;;;;13.60;10.13;;;18.40;99.90;;;;;;6286308;22;20477;-83
2021/06/28 01:50:05;;;;;;;13.30;9.73;;;18.40;99.90;;;;;;6287357;22;20426;-81
2021/06/28 01:52:32;;;;;;;16.37;12.33;;;18.40;99.90;;;;;;6286087;22;20450;-82
2021/06/28 01:54:59;;;;;;;16.90;11.47;;;18.40;99.90;;;;;;6286250;22;20485;-82
2021/06/28 01:57:26;;;;;;;14.33;10.70;;;18.40;99.90;;;;;;6285898;22;20784;-82
2021/06/28 01:59:54;;;;;;;20.33;14.93;;;18.30;99.90;;;;;;6286037;22;20474;-81
2021/06/28 02:02:20;;;;;;;15.70;11.10;;;18.30;99.90;;;;;;6287063;22;20981;-81
2021/06/28 02:04:48;;;;;;;15.30;11.20;;;18.40;99.90;;;;;;6286311;22;20441;-80
2021/06/28 02:07:15;;;;;;;14.70;11.10;;;18.40;99.90;;;;;;6286803;22;20419;-81
2021/06/28 02:09:42;;;;;;;14.67;10.73;;;18.40;99.90;;;;;;6285176;22;20482;-80
2021/06/28 02:12:10;;;;;;;18.73;12.50;;;18.40;99.90;;;;;;6287251;22;20491;-81
2021/06/28 02:14:37;;;;;;;15.30;11.30;;;18.30;99.90;;;;;;6286590;22;20410;-79
2021/06/28 02:17:05;;;;;;;15.60;11.80;;;18.20;99.90;;;;;;6286734;22;20470;-80
2021/06/28 02:19:32;;;;;;;13.73;10.50;;;18.30;99.90;;;;;;6287804;22;20481;-81
2021/06/28 02:22:00;;;;;;;15.77;11.20;;;18.40;99.90;;;;;;6287587;22;20529;-81
2021/06/28 02:24:26;;;;;;;15.30;11.23;;;18.40;99.90;;;;;;6289290;22;20390;-81
2021/06/28 02:26:53;;;;;;;13.70;10.50;;;18.40;99.90;;;;;;6289178;22;20414;-80
2021/06/28 02:29:20;;;;;;;14.83;10.80;;;18.40;99.90;;;;;;6288570;22;20526;-81
2021/06/28 02:31:47;;;;;;;19.80;13.90;;;18.40;99.90;;;;;;6289179;22;20481;-80
2021/06/28 02:34:15;;;;;;;15.20;10.90;;;18.30;99.90;;;;;;6289081;22;20782;-81
2021/06/28 02:36:42;;;;;;;17.20;13.43;;;18.20;99.90;;;;;;6288981;22;20445;-82
2021/06/28 02:39:10;;;;;;;13.27;10.37;;;18.20;99.90;;;;;;6289095;22;20529;-83
2021/06/28 02:41:37;;;;;;;15.87;11.63;;;18.30;99.90;;;;;;6288764;22;20521;-82
2021/06/28 02:44:05;;;;;;;14.80;10.77;;;18.20;99.90;;;;;;6288383;22;20400;-83
2021/06/28 02:46:32;;;;;;;15.90;10.70;;;18.20;99.90;;;;;;6290397;22;20395;-81
2021/06/28 02:48:59;;;;;;;14.20;11.10;;;18.30;99.90;;;;;;6287944;22;20441;-81
2021/06/28 02:51:28;;;;;;;17.90;11.53;;;18.30;99.90;;;;;;6289437;22;20498;-80
2021/06/28 02:53:55;;;;;;;14.57;11.30;;;18.40;99.90;;;;;;6289439;22;20418;-81
2021/06/28 02:56:22;;;;;;;15.30;11.70;;;18.40;99.90;;;;;;6289922;22;20431;-81
2021/06/28 02:58:52;;;;;;;13.20;10.33;;;18.30;99.90;;;;;;6288419;22;20506;-81
2021/06/28 03:01:20;;;;;;;20.43;14.57;;;18.40;99.90;;;;;;6289776;22;20466;-80
2021/06/28 03:03:47;;;;;;;21.53;16.60;;;18.20;99.90;;;;;;6289563;22;20474;-81
2021/06/28 03:06:15;;;;;;;15.93;12.07;;;18.00;99.90;;;;;;6288879;22;20438;-81
2021/06/28 03:08:44;;;;;;;15.60;11.50;;;18.00;99.90;;;;;;6288576;22;20491;-80
2021/06/28 03:11:14;;;;;;;16.27;11.63;;;18.10;99.90;;;;;;6288120;22;20438;-80
2021/06/28 03:13:41;;;;;;;21.20;15.43;;;18.10;99.90;;;;;;6286665;22;20791;-80
2021/06/28 03:16:08;;;;;;;14.43;11.40;;;18.00;99.90;;;;;;6288349;22;20470;-80
2021/06/28 03:18:35;;;;;;;18.20;11.90;;;18.00;99.90;;;;;;6288694;22;20434;-80
2021/06/28 03:21:03;;;;;;;14.90;11.20;;;18.10;99.90;;;;;;6288614;22;20470;-81
2021/06/28 03:23:30;;;;;;;19.50;12.83;;;18.00;99.90;;;;;;6288423;22;20478;-80
2021/06/28 03:25:58;;;;;;;17.27;12.67;;;18.10;99.90;;;;;;6287634;22;20411;-80
2021/06/28 03:28:25;;;;;;;15.87;11.60;;;18.10;99.90;;;;;;6286757;22;20438;-80
2021/06/28 03:30:52;;;;;;;17.07;12.23;;;18.00;99.90;;;;;;6285807;22;20417;-80
2021/06/28 03:33:19;;;;;;;14.20;11.20;;;18.00;99.90;;;;;;6286063;22;20421;-81
2021/06/28 03:35:46;;;;;;;19.50;12.13;;;18.10;99.90;;;;;;6286969;22;20437;-80
2021/06/28 03:38:13;;;;;;;15.70;11.37;;;18.10;99.90;;;;;;6285654;22;20463;-80
2021/06/28 03:40:40;;;;;;;14.40;11.40;;;18.00;99.90;;;;;;6286948;22;20474;-80
2021/06/28 03:43:10;;;;;;;15.50;10.27;;;18.00;99.90;;;;;;6287154;22;20446;-80
2021/06/28 03:45:38;;;;;;;20.07;15.10;;;18.10;99.90;;;;;;6285805;22;20402;-80
2021/06/28 03:48:07;;;;;;;18.10;13.60;;;17.90;99.90;;;;;;6285981;22;20463;-79
2021/06/28 03:50:34;;;;;;;16.97;12.43;;;17.90;99.90;;;;;;6284456;22;20478;-80
2021/06/28 03:53:01;;;;;;;17.20;13.10;;;17.80;99.90;;;;;;6284811;22;20402;-83
2021/06/28 03:55:28;;;;;;;15.30;12.37;;;17.80;99.90;;;;;;6282486;22;20449;-82
2021/06/28 03:57:55;;;;;;;16.50;11.70;;;17.80;99.90;;;;;;6282088;22;20412;-83
2021/06/28 04:00:25;;;;;;;15.07;10.90;;;17.90;99.90;;;;;;6281758;22;20478;-83
2021/06/28 04:02:54;;;;;;;18.90;10.77;;;17.90;99.90;;;;;;6281445;22;20426;-83
2021/06/28 04:05:22;;;;;;;18.43;12.50;;;17.90;99.90;;;;;;6281732;22;20411;-83
2021/06/28 04:07:49;;;;;;;17.00;11.13;;;17.80;99.90;;;;;;6280241;22;20403;-81
2021/06/28 04:10:17;;;;;;;7.03;3.00;;;17.90;99.90;;;;;;6287605;22;20493;-82
2021/06/28 04:12:45;;;;;;;8.73;4.97;;;18.10;99.90;;;;;;6290140;22;20478;-83
2021/06/28 04:15:13;;;;;;;15.27;9.53;;;18.20;99.90;;;;;;6281210;22;20410;-82
2021/06/28 04:17:42;;;;;;;16.40;10.67;;;18.30;99.90;;;;;;6283122;22;20772;-81
2021/06/28 04:20:11;;;;;;;16.13;11.90;;;18.40;99.90;;;;;;6282937;22;20479;-81
2021/06/28 04:22:39;;;;;;;14.70;11.20;;;18.30;99.90;;;;;;6283269;22;20435;-82
2021/06/28 04:25:09;;;;;;;15.70;11.60;;;18.20;99.90;;;;;;6282549;22;20893;-82
2021/06/28 04:27:36;;;;;;;15.40;10.80;;;18.30;99.90;;;;;;6283553;22;20438;-82
2021/06/28 04:30:05;;;;;;;15.80;11.90;;;18.40;99.90;;;;;;6281788;22;20429;-82
2021/06/28 04:32:32;;;;;;;15.50;11.93;;;18.40;99.90;;;;;;6284142;22;20439;-82
2021/06/28 04:35:00;;;;;;;17.13;13.20;;;18.40;99.90;;;;;;6285394;22;20486;-81
2021/06/28 04:37:27;;;;;;;15.00;11.77;;;18.20;99.90;;;;;;6285267;22;20494;-82
2021/06/28 04:39:54;;;;;;;14.73;12.00;;;18.30;99.90;;;;;;6292108;22;20447;-80
2021/06/28 04:42:21;;;;;;;17.30;11.93;;;18.40;99.90;;;;;;6298241;22;20439;-81
2021/06/28 04:44:48;;;;;;;15.73;13.20;;;18.40;99.90;;;;;;6297617;22;20398;-82
2021/06/28 04:47:15;;;;;;;14.80;11.00;;;18.40;99.90;;;;;;6297686;22;20402;-81
2021/06/28 04:49:41;;;;;;;17.17;11.70;;;18.50;99.90;;;;;;6296898;22;20487;-81
2021/06/28 04:52:10;;;;;;;18.00;12.47;;;18.60;99.90;;;;;;6284182;22;20431;-82
2021/06/28 04:54:36;;;;;;;16.20;12.13;;;18.70;99.90;;;;;;6282485;22;20516;-82
2021/06/28 04:57:04;;;;;;;14.00;10.60;;;18.80;99.90;;;;;;6282946;22;20478;-82
2021/06/28 04:59:31;;;;;;;15.53;12.70;;;18.90;99.90;;;;;;6281838;22;20510;-81
2021/06/28 05:01:57;;;;;;;15.53;12.03;;;18.90;99.90;;;;;;6284039;22;20485;-82
2021/06/28 05:04:25;;;;;;;16.07;12.93;;;19.00;99.90;;;;;;6283365;22;20399;-82
2021/06/28 05:06:52;;;;;;;14.00;10.90;;;19.00;99.90;;;;;;6282496;22;20403;-82
2021/06/28 05:09:20;;;;;;;15.17;12.07;;;19.10;99.90;;;;;;6279676;22;20462;-80
2021/06/28 05:11:47;;;;;;;15.43;11.70;;;19.20;99.90;;;;;;6275013;22;20533;-81
2021/06/28 05:14:14;;;;;;;17.73;12.40;;;19.30;99.90;;;;;;6276535;22;20439;-84
2021/06/28 05:16:41;;;;;;;14.00;10.80;;;19.30;99.90;;;;;;6281444;22;20889;-82
2021/06/28 05:19:08;;;;;;;16.03;11.87;;;19.40;99.90;;;;;;6281516;22;20461;-82
2021/06/28 05:21:35;;;;;;;15.13;11.20;;;19.40;99.90;;;;;;6277866;22;20480;-82
2021/06/28 05:24:01;;;;;;;17.53;12.17;;;19.50;99.90;;;;;;6281610;22;20471;-81
2021/06/28 05:26:30;;;;;;;15.53;10.77;;;19.60;99.90;;;;;;6280795;22;20433;-82
2021/06/28 05:28:57;;;;;;;15.20;12.20;;;19.60;99.90;;;;;;6280818;22;21005;-82
2021/06/28 05:31:26;;;;;;;15.37;12.07;;;19.70;99.90;;;;;;6283667;22;20494;-81
2021/06/28 05:33:53;;;;;;;15.00;12.03;;;19.80;99.90;;;;;;6284290;22;20411;-82
2021/06/28 05:36:19;;;;;;;17.93;11.77;;;19.80;99.90;;;;;;6282227;22;20442;-81
2021/06/28 05:38:46;;;;;;;13.77;11.07;;;19.90;99.90;;;;;;6281410;22;20486;-85
2021/06/28 05:41:13;;;;;;;14.10;11.53;;;20.00;99.90;;;;;;6281832;22;20462;-84
2021/06/28 05:43:41;;;;;;;16.10;13.40;;;20.00;99.90;;;;;;6279991;22;21176;-84
2021/06/28 05:46:08;;;;;;;16.83;12.83;;;20.00;99.90;;;;;;6279826;22;20466;-84
2021/06/28 05:48:35;;;;;;;13.50;11.00;;;20.10;99.90;;;;;;6280006;22;20458;-85
2021/06/28 05:51:02;;;;;;;14.90;12.20;;;20.20;99.90;;;;;;6280115;22;20411;-81
2021/06/28 05:53:28;;;;;;;16.10;12.47;;;20.30;99.90;;;;;;6281632;22;20486;-82
2021/06/28 05:55:58;;;;;;;15.07;11.63;;;20.30;99.90;;;;;;6279874;22;20492;-82
2021/06/28 05:58:28;;;;;;;14.27;11.00;;;20.20;99.90;;;;;;6278651;22;20434;-81
2021/06/28 06:00:59;;;;;;;14.83;11.87;;;20.20;99.90;;;;;;6281248;22;20405;-83
2021/06/28 06:03:26;;;;;;;14.70;11.40;;;20.30;99.90;;;;;;6280960;22;20438;-82
2021/06/28 06:05:53;;;;;;;17.13;12.40;;;20.30;99.90;;;;;;6280012;22;20501;-83
2021/06/28 06:08:23;;;;;;;17.37;13.57;;;20.30;99.90;;;;;;6281205;22;20435;-82
2021/06/28 06:10:51;;;;;;;18.40;12.53;;;20.30;99.90;;;;;;6280566;22;20406;-82
2021/06/28 06:13:17;;;;;;;17.57;13.87;;;20.40;99.90;;;;;;6279274;22;20415;-82
2021/06/28 06:15:46;;;;;;;18.30;15.17;;;20.50;99.90;;;;;;6279908;22;20806;-82
2021/06/28 06:18:17;;;;;;;18.50;12.63;;;20.70;99.90;;;;;;6277288;22;20442;-81
2021/06/28 06:20:47;;;;;;;17.87;13.90;;;20.80;99.90;;;;;;6277392;22;20932;-80
2021/06/28 06:23:15;;;;;;;18.33;15.20;;;20.90;99.90;;;;;;6276882;22;20948;-81
2021/06/28 06:25:44;;;;;;;22.33;15.00;;;21.00;99.90;;;;;;6277533;22;20406;-81
2021/06/28 06:28:12;;;;;;;17.40;12.70;;;21.10;99.90;;;;;;6274479;22;20458;-80
2021/06/28 06:30:39;;;;;;;17.70;11.43;;;21.20;99.90;;;;;;6276688;22;20457;-82
2021/06/28 06:33:06;;;;;;;15.37;13.10;;;21.20;99.90;;;;;;6278504;22;20580;-82
2021/06/28 06:35:34;;;;;;;15.87;12.50;;;21.30;99.90;;;;;;6278784;22;20473;-81
2021/06/28 06:38:01;;;;;;;16.20;11.53;;;21.40;99.90;;;;;;6278638;22;20437;-82
2021/06/28 06:40:29;;;;;;;20.87;13.27;;;21.50;99.90;;;;;;6283556;22;20528;-84
2021/06/28 06:42:58;;;;;;;17.83;12.40;;;21.60;99.90;;;;;;6286839;22;20585;-83
2021/06/28 06:45:26;;;;;;;16.13;13.20;;;21.70;99.90;;;;;;6286439;22;20493;-84
2021/06/28 06:47:53;;;;;;;16.20;13.37;;;21.80;99.90;;;;;;6288758;22;20425;-84
2021/06/28 06:50:20;;;;;;;18.93;11.93;;;21.90;99.90;;;;;;6287725;22;20486;-83
2021/06/28 06:52:49;;;;;;;22.70;13.57;;;22.00;99.90;;;;;;6286555;22;20486;-84
2021/06/28 06:55:17;;;;;;;18.40;12.87;;;22.10;99.90;;;;;;6281618;22;20415;-84
2021/06/28 06:57:45;;;;;;;15.57;11.93;;;22.10;99.90;;;;;;6282406;22;20445;-83
2021/06/28 07:00:15;;;;;;;16.03;11.83;;;22.20;99.90;;;;;;6282367;22;20446;-84
2021/06/28 07:02:42;;;;;;;16.73;11.87;;;22.40;99.90;;;;;;6283437;22;20517;-84
2021/06/28 07:05:10;;;;;;;19.13;10.50;;;22.40;99.90;;;;;;6281377;22;20434;-83
2021/06/28 07:07:40;;;;;;;16.57;11.00;;;22.50;99.90;;;;;;6281459;22;20414;-82
2021/06/28 07:10:11;;;;;;;17.60;11.30;;;22.60;99.90;;;;;;6279405;22;20415;-83
2021/06/28 07:12:39;;;;;;;15.43;10.87;;;22.60;99.90;;;;;;6278420;22;20396;-83
2021/06/28 07:15:07;;;;;;;16.10;11.13;;;22.70;99.90;;;;;;6278521;22;20434;-83
2021/06/28 07:17:34;;;;;;;18.03;11.80;;;22.70;99.90;;;;;;6280719;22;20407;-82
2021/06/28 07:20:01;;;;;;;15.27;10.83;;;22.90;99.90;;;;;;6278147;22;20498;-82
2021/06/28 07:22:28;;;;;;;16.87;10.57;;;23.10;99.90;;;;;;6278576;22;20446;-83
2021/06/28 07:24:55;;;;;;;13.43;10.27;;;23.30;99.90;;;;;;6278546;22;20419;-84
2021/06/28 07:27:23;;;;;;;15.03;12.10;;;23.50;99.90;;;;;;6280117;22;20434;-83
2021/06/28 07:29:50;;;;;;;14.60;10.83;;;23.70;99.90;;;;;;6279495;22;20518;-83
2021/06/28 07:32:16;;;;;;;17.00;11.00;;;23.70;99.90;;;;;;6280831;22;20429;-82
2021/06/28 07:34:43;;;;;;;16.83;9.93;;;23.80;99.90;;;;;;6286453;22;20493;-84
2021/06/28 07:37:10;;;;;;;14.37;10.70;;;23.80;99.90;;;;;;6280178;22;20497;-84
2021/06/28 07:39:37;;;;;;;14.87;11.23;;;23.90;99.90;;;;;;6282383;22;20454;-86
2021/06/28 07:42:05;;;;;;;17.17;12.20;;;23.90;99.90;;;;;;6282671;22;20438;-84
2021/06/28 07:44:33;;;;;;;18.87;12.00;;;23.60;99.90;;;;;;6280230;22;20936;-84
2021/06/28 07:47:00;;;;;;;13.50;10.70;;;23.60;99.90;;;;;;6280308;22;20839;-84
2021/06/28 07:49:27;;;;;;;17.23;12.00;;;23.70;99.90;;;;;;6261136;22;20987;-85
2021/06/28 07:51:55;;;;;;;12.00;9.27;;;23.60;99.90;;;;;;6280612;22;20442;-86
2021/06/28 07:54:23;;;;;;;17.93;10.47;;;23.80;99.90;;;;;;6280009;22;20414;-84
2021/06/28 07:56:50;;;;;;;13.77;9.73;;;24.20;99.90;;;;;;6282362;22;20411;-86
2021/06/28 07:59:17;;;;;;;13.63;9.67;;;24.50;99.90;;;;;;6282693;22;20435;-85
2021/06/28 08:01:45;;;;;;;17.23;10.33;;;24.70;99.90;;;;;;6279984;22;20417;-85
2021/06/28 08:04:12;;;;;;;12.97;9.77;;;24.90;99.90;;;;;;6278198;22;20525;-86
2021/06/28 08:06:40;;;;;;;20.43;10.77;;;25.00;99.90;;;;;;6280010;22;20445;-85
2021/06/28 08:09:07;;;;;;;13.57;8.80;;;25.00;99.90;;;;;;6251803;22;20505;-86
2021/06/28 08:11:34;;;;;;;14.57;9.80;;;24.90;99.90;;;;;;6277957;22;21067;-86
2021/06/28 08:14:02;;;;;;;12.47;8.43;;;25.00;99.90;;;;;;6278407;22;20478;-85
2021/06/28 08:16:29;;;;;;;14.00;9.20;;;25.20;99.90;;;;;;6279801;22;20419;-85
2021/06/28 08:18:57;;;;;;;13.53;9.63;;;25.20;99.90;;;;;;6282307;22;20423;-84
2021/06/28 08:21:24;;;;;;;14.47;10.13;;;25.30;99.90;;;;;;6277596;22;20460;-85
2021/06/28 08:23:51;;;;;;;14.67;9.30;;;25.40;99.90;;;;;;6278489;22;20439;-86
2021/06/28 08:26:18;;;;;;;13.37;9.53;;;25.50;99.90;;;;;;6276358;22;20423;-85
2021/06/28 08:28:46;;;;;;;13.90;9.30;;;25.60;99.90;;;;;;6277357;22;20509;-87
2021/06/28 08:31:13;;;;;;;12.50;9.20;;;25.60;99.90;;;;;;6275634;22;20502;-86
2021/06/28 08:33:41;;;;;;;19.00;8.80;;;25.70;99.90;;;;;;6277265;22;20917;-86
2021/06/28 08:36:09;;;;;;;13.47;9.13;;;25.70;99.90;;;;;;6276732;22;20411;-86
2021/06/28 08:38:36;;;;;;;15.97;10.93;;;25.90;99.90;;;;;;6276897;22;20441;-87
2021/06/28 08:41:04;;;;;;;13.20;8.93;;;26.10;99.90;;;;;;6276954;22;20802;-87
2021/06/28 08:43:31;;;;;;;14.40;10.23;;;26.50;99.90;;;;;;6276545;22;20437;-87
2021/06/28 08:45:58;;;;;;;14.13;8.93;;;26.80;99.90;;;;;;6276567;22;20479;-87
2021/06/28 08:48:25;;;;;;;15.50;9.50;;;27.00;99.90;;;;;;6276080;22;20513;-86
2021/06/28 08:50:54;;;;;;;12.90;8.60;;;27.20;99.90;;;;;;6280336;22;20446;-87
2021/06/28 08:53:23;;;;;;;19.67;9.20;;;27.30;99.90;;;;;;6276891;22;20425;-86
2021/06/28 08:55:52;;;;;;;15.13;8.80;;;27.30;99.90;;;;;;6276830;22;20755;-87
2021/06/28 08:58:20;;;;;;;19.93;8.37;;;27.00;99.90;;;;;;6279362;22;20449;-86
2021/06/28 09:00:47;;;;;;;16.13;7.37;;;26.90;99.90;;;;;;6275587;22;21000;-86
2021/06/28 09:03:14;;;;;;;11.97;6.70;;;27.20;99.90;;;;;;6277177;22;20446;-87
2021/06/28 09:05:51;;;;;;;13.30;7.93;;;27.40;99.90;;;;;;6277443;22;20438;-85
2021/06/28 09:08:19;;;;;;;15.93;9.27;;;27.70;99.90;;;;;;6278215;22;20505;-85
2021/06/28 09:10:47;;;;;;;14.00;8.17;;;27.50;99.90;;;;;;6278879;22;20403;-86
2021/06/28 09:13:14;;;;;;;12.07;7.50;;;27.60;99.90;;;;;;6276816;22;20429;-86
2021/06/28 09:15:43;;;;;;;13.20;7.47;;;28.00;99.90;;;;;;6277358;22;20496;-86
2021/06/28 09:18:22;;;;;;;12.30;6.97;;;27.90;99.90;;;;;;6277217;22;20471;-85
2021/06/28 09:20:51;;;;;;;11.57;6.80;;;27.80;99.90;;;;;;6277847;22;20418;-86
2021/06/28 09:23:23;;;;;;;11.03;6.73;;;27.70;99.90;;;;;;6277446;22;20765;-85
2021/06/28 09:25:55;;;;;;;12.97;7.03;;;27.50;99.90;;;;;;6281723;22;20399;-87
2021/06/28 09:28:37;;;;;;;15.63;7.90;;;27.40;99.90;;;;;;6278670;22;20929;-86
2021/06/28 09:31:04;;;;;;;13.27;6.83;;;27.20;99.90;;;;;;6277909;22;20391;-86
2021/06/28 09:33:31;;;;;;;14.10;8.17;;;27.00;99.90;;;;;;6281123;22;20485;-86
2021/06/28 09:35:58;;;;;;;12.03;6.67;;;26.70;99.90;;;;;;6278847;22;20809;-86
2021/06/28 09:38:36;;;;;;;13.67;7.20;;;26.50;99.90;;;;;;6280411;22;20469;-85
2021/06/28 09:41:32;;;;;;;12.00;6.53;;;26.60;99.90;;;;;;6277256;22;20395;-86
2021/06/28 09:44:03;;;;;;;13.33;7.13;;;26.70;99.90;;;;;;6278910;22;20470;-86
2021/06/28 09:46:31;;;;;;;12.80;6.90;;;26.70;99.90;;;;;;6277461;22;20468;-86
2021/06/28 09:48:59;;;;;;;12.10;7.23;;;26.90;99.90;;;;;;6277924;22;20434;-86
2021/06/28 09:51:28;;;;;;;10.77;6.63;;;27.10;99.90;;;;;;6281348;22;20494;-86
2021/06/28 09:56:58;;;;;;;12.60;7.67;;;27.70;99.90;;;;;;6268001;22;20444;-86
2021/06/28 09:59:28;;;;;;;18.63;8.33;;;28.20;99.90;;;;;;6276842;22;20438;-86
2021/06/28 10:02:28;;;;;;;14.87;8.23;;;28.40;99.90;;;;;;6275972;22;20423;-86
2021/06/28 10:04:58;;;;;;;11.50;7.70;;;29.00;99.90;;;;;;6153117;23;20787;-85
2021/06/28 10:07:31;;;;;;;13.37;8.40;;;29.40;99.90;;;;;;6253977;22;20426;-86
2021/06/28 10:10:20;;;;;;;11.73;6.80;;;29.50;99.90;;;;;;6281562;22;20430;-86
2021/06/28 10:12:59;;;;;;;13.83;7.37;;;29.60;99.90;;;;;;6279632;22;20715;-87
2021/06/28 10:15:28;;;;;;;14.50;7.40;;;29.80;99.90;;;;;;6282023;22;20414;-87
2021/06/28 10:17:55;;;;;;;14.50;6.80;;;29.90;99.90;;;;;;6279990;22;20414;-86
2021/06/28 10:20:24;;;;;;;13.10;7.20;;;30.00;99.90;;;;;;6279747;22;20493;-86
2021/06/28 10:22:53;;;;;;;15.00;7.60;;;30.20;99.90;;;;;;6282913;22;20395;-86
2021/06/28 10:25:24;;;;;;;12.60;6.73;;;30.00;99.90;;;;;;6280292;22;20471;-87
2021/06/28 10:27:55;;;;;;;12.60;7.53;;;30.10;99.90;;;;;;6279486;22;20893;-87
2021/06/28 10:30:27;;;;;;;15.80;7.00;;;30.30;99.90;;;;;;6279473;22;20710;-87
2021/06/28 10:33:00;;;;;;;13.73;8.10;;;30.50;99.90;;;;;;6281858;22;20877;-86
2021/06/28 10:35:33;;;;;;;16.63;6.33;;;30.40;99.90;;;;;;6282391;22;20415;-85
2021/06/28 10:38:05;;;;;;;19.23;7.60;;;30.30;99.90;;;;;;6287173;22;20731;-87
2021/06/28 10:40:49;;;;;;;13.70;7.23;;;30.10;99.90;;;;;;6286409;22;20391;-86
2021/06/28 10:43:30;;;;;;;12.70;7.30;;;29.60;99.90;;;;;;6288401;22;20452;-85
2021/06/28 10:45:58;;;;;;;15.13;7.60;;;29.40;99.90;;;;;;6277904;22;20478;-84
2021/06/28 10:48:29;;;;;;;31.30;7.90;;;29.20;99.90;;;;;;6278827;22;20494;-85
2021/06/28 10:51:02;;;;;;;12.73;7.50;;;29.10;99.90;;;;;;6289669;22;20463;-85
2021/06/28 10:54:14;;;;;;;14.37;7.30;;;29.30;99.90;;;;;;6290434;22;20411;-86
2021/06/28 10:56:55;;;;;;;13.43;8.00;;;29.50;99.90;;;;;;6284714;22;20421;-86
2021/06/28 10:59:32;;;;;;;13.80;7.80;;;29.80;99.90;;;;;;6276563;22;20848;-85
2021/06/28 11:02:08;;;;;;;12.20;7.40;;;30.20;99.90;;;;;;6277250;22;20406;-85
2021/06/28 11:04:40;;;;;;;13.43;7.03;;;30.30;99.90;;;;;;6276818;22;20426;-86
2021/06/28 11:07:12;;;;;;;23.70;8.87;;;30.20;99.90;;;;;;6277016;22;20477;-86
2021/06/28 11:09:42;;;;;;;13.63;8.50;;;29.80;99.90;;;;;;6277090;22;20426;-85
2021/06/28 11:12:30;;;;;;;21.83;8.70;;;29.40;99.90;;;;;;6277940;22;20409;-86
2021/06/28 11:15:10;;;;;;;14.10;7.70;;;28.80;99.90;;;;;;6278562;22;20414;-88
2021/06/28 11:17:47;;;;;;;14.63;8.13;;;28.30;99.90;;;;;;6279417;22;20397;-87
2021/06/28 11:20:27;;;;;;;15.17;8.70;;;27.80;99.90;;;;;;6277851;22;20402;-86
2021/06/28 11:23:00;;;;;;;14.80;8.20;;;27.40;99.90;;;;;;6277453;22;20916;-87
2021/06/28 11:25:35;;;;;;;17.30;9.63;;;26.90;99.90;;;;;;6279773;22;20418;-86
2021/06/28 11:30:48;;;;;;;15.33;8.87;;;26.20;99.90;;;;;;6258631;22;20458;-85
2021/06/28 11:33:16;;;;;;;16.63;10.30;;;25.90;99.90;;;;;;6278609;22;20395;-85
2021/06/28 11:35:45;;;;;;;20.10;11.50;;;25.60;99.90;;;;;;6277305;22;20460;-85
2021/06/28 11:38:19;;;;;;;19.73;12.87;;;25.20;99.90;;;;;;6276972;22;20399;-85
2021/06/28 11:40:51;;;;;;;19.10;13.47;;;25.10;99.90;;;;;;6278629;22;20423;-86
2021/06/28 11:43:37;;;;;;;18.17;14.53;;;24.90;99.90;;;;;;6277241;22;20725;-84
2021/06/28 11:46:07;;;;;;;25.80;18.93;;;24.80;99.90;;;;;;6277882;22;20967;-85
2021/06/28 11:48:35;;;;;;;18.53;14.00;;;24.80;99.90;;;;;;6278566;22;20445;-86
2021/06/28 11:51:15;;;;;;;21.73;13.87;;;24.90;99.90;;;;;;6277342;22;20502;-85
2021/06/28 11:53:44;;;;;;;15.30;11.60;;;25.00;99.90;;;;;;6275104;22;20422;-85
2021/06/28 11:56:20;;;;;;;17.87;10.80;;;25.10;99.90;;;;;;6277773;22;20483;-85
2021/06/28 11:58:56;;;;;;;16.80;11.77;;;25.40;99.90;;;;;;6278579;22;21015;-85
2021/06/28 12:03:52;;;;;;;17.87;12.20;;;25.60;99.90;;;;;;6267663;22;20454;-83
2021/06/28 12:06:19;;;;;;;18.87;13.70;;;25.60;99.90;;;;;;6282833;22;20414;-82
2021/06/28 12:08:45;;;;;;;19.43;14.50;;;25.70;99.90;;;;;;6282703;22;20770;-84
2021/06/28 12:11:14;;;;;;;23.40;14.17;;;25.70;99.90;;;;;;6282213;22;20474;-86
2021/06/28 12:13:43;;;;;;;20.00;15.80;;;25.30;99.90;;;;;;6283642;22;20419;-84
2021/06/28 12:16:19;;;;;;;21.33;14.33;;;25.30;99.90;;;;;;6281976;22;20403;-84
2021/06/28 12:18:47;;;;;;;25.77;18.77;;;25.40;99.90;;;;;;6282634;22;20426;-83
2021/06/28 12:21:27;;;;;;;26.43;21.93;;;25.70;99.90;;;;;;6281785;22;20437;-84
2021/06/28 12:24:16;;;;;;;29.83;23.63;;;26.90;99.90;;;;;;6281907;22;20468;-84
2021/06/28 12:27:00;;;;;;;27.33;22.37;;;28.20;99.90;;;;;;6271174;22;20411;-85
2021/06/28 12:29:29;;;;;;;22.40;16.40;;;29.20;99.90;;;;;;6281728;22;20450;-85
2021/06/28 12:32:08;;;;;;;19.83;14.10;;;29.90;99.90;;;;;;6283382;22;20430;-84
2021/06/28 12:34:37;;;;;;;22.67;15.17;;;31.70;99.90;;;;;;6283210;22;20379;-83
2021/06/28 12:37:06;;;;;;;28.43;25.57;;;32.10;99.90;;;;;;6283275;22;20435;-83
2021/06/28 12:39:33;;;;;;;30.47;27.50;;;32.00;99.90;;;;;;6285257;22;20399;-83
2021/06/28 12:42:15;;;;;;;27.13;22.00;;;32.20;99.90;;;;;;6284541;22;20419;-83
2021/06/28 12:44:42;;;;;;;36.10;32.60;;;33.20;99.90;;;;;;6284432;22;20479;-85
2021/06/28 12:47:11;;;;;;;75.27;69.30;;;33.50;99.90;;;;;;6282035;22;20434;-83
2021/06/28 12:49:38;;;;;;;37.33;33.97;;;33.90;99.90;;;;;;6285135;22;20474;-84